createdAt,value
2019-02-02T00:01:35.603Z,5.37
2019-02-02T00:04:09.825Z,5.39
2019-02-02T00:06:51.355Z,5.41
2019-02-02T00:09:23.715Z,5.48
2019-02-02T00:11:56.862Z,5.53
2019-02-02T00:14:29.055Z,5.43
2019-02-02T00:17:07.657Z,5.33
2019-02-02T00:19:52.589Z,5.28
2019-02-02T00:22:31.578Z,5.19
2019-02-02T00:25:06.573Z,5.19
2019-02-02T00:27:41.744Z,5.15
2019-02-02T00:30:19.810Z,5.09
2019-02-02T00:32:49.439Z,5.06
2019-02-02T00:35:29.568Z,4.98
2019-02-02T00:38:07.960Z,5.09
2019-02-02T00:40:45.848Z,5.00
2019-02-02T00:43:17.664Z,4.93
2019-02-02T00:45:53.045Z,5.13
2019-02-02T00:48:28.479Z,5.05
2019-02-02T00:50:59.669Z,4.99
2019-02-02T00:53:39.722Z,4.92
2019-02-02T00:56:15.007Z,4.92
2019-02-02T00:58:46.370Z,4.97
2019-02-02T01:01:18.014Z,5.03
2019-02-02T01:03:57.826Z,4.97
2019-02-02T01:06:33.675Z,4.90
2019-02-02T01:09:17.857Z,4.94
2019-02-02T01:11:47.694Z,4.97
2019-02-02T01:14:23.214Z,4.81
2019-02-02T01:16:54.756Z,4.77
2019-02-02T01:19:33.227Z,4.78
2019-02-02T01:22:02.958Z,4.85
2019-02-02T01:24:38.848Z,4.93
2019-02-02T01:27:10.781Z,4.95
2019-02-02T01:29:43.515Z,5.04
2019-02-02T01:32:20.920Z,5.11
2019-02-02T01:34:57.599Z,5.05
2019-02-02T01:37:32.010Z,4.99
2019-02-02T01:40:02.620Z,5.02
2019-02-02T01:42:43.963Z,5.10
2019-02-02T01:45:18.279Z,5.07
2019-02-02T01:47:52.253Z,5.04
2019-02-02T01:50:32.215Z,5.04
2019-02-02T01:53:04.951Z,5.05
2019-02-02T01:55:36.008Z,5.03
2019-02-02T01:58:16.025Z,4.97
2019-02-02T02:00:38.988Z,4.91
2019-02-02T02:03:16.825Z,4.93
2019-02-02T02:05:48.921Z,4.85
2019-02-02T02:08:20.614Z,4.80
2019-02-02T02:10:52.481Z,4.78
2019-02-02T02:13:23.903Z,4.69
2019-02-02T02:15:55.310Z,4.68
2019-02-02T02:18:30.561Z,4.77
2019-02-02T02:21:01.423Z,4.65
2019-02-02T02:23:32.687Z,4.79
2019-02-02T02:26:04.108Z,4.79
2019-02-02T02:28:38.938Z,4.81
2019-02-02T02:31:19.414Z,4.78
2019-02-02T02:33:56.857Z,4.74
2019-02-02T02:36:35.346Z,4.84
2019-02-02T02:39:11.888Z,4.83
2019-02-02T02:41:43.421Z,4.81
2019-02-02T02:44:18.650Z,4.83
2019-02-02T02:46:58.749Z,4.91
2019-02-02T02:49:39.115Z,4.91
2019-02-02T02:52:15.476Z,4.90
2019-02-02T02:54:46.646Z,4.89
2019-02-02T02:57:17.919Z,4.86
2019-02-02T02:59:49.142Z,4.91
2019-02-02T03:02:19.648Z,4.84
2019-02-02T03:04:56.041Z,4.85
2019-02-02T03:07:30.916Z,4.85
2019-02-02T03:10:05.653Z,4.81
2019-02-02T03:12:44.868Z,4.80
2019-02-02T03:15:18.425Z,4.73
2019-02-02T03:17:52.502Z,4.66
2019-02-02T03:20:22.516Z,4.67
2019-02-02T03:22:55.332Z,4.62
2019-02-02T03:25:28.277Z,4.70
2019-02-02T03:28:02.522Z,4.66
2019-02-02T03:30:35.015Z,4.71
2019-02-02T03:33:10.799Z,4.71
2019-02-02T03:35:54.490Z,4.79
2019-02-02T03:38:28.178Z,4.78
2019-02-02T03:41:04.367Z,4.84
2019-02-02T03:43:41.870Z,4.84
2019-02-02T03:46:14.263Z,4.89
2019-02-02T03:48:49.912Z,4.86
2019-02-02T03:51:22.016Z,4.95
2019-02-02T03:54:08.868Z,5.03
2019-02-02T03:56:39.384Z,5.09
2019-02-02T03:59:30.525Z,5.06
2019-02-02T04:02:00.360Z,5.10
2019-02-02T04:04:31.824Z,5.16
2019-02-02T04:07:11.802Z,5.24
2019-02-02T04:09:44.626Z,5.39
2019-02-02T04:12:15.902Z,5.45
2019-02-02T04:14:50.038Z,5.54
2019-02-02T04:17:19.802Z,5.49
2019-02-02T04:19:50.789Z,5.39
2019-02-02T04:22:24.538Z,5.46
2019-02-02T04:25:00.355Z,5.49
2019-02-02T04:27:36.836Z,5.24
2019-02-02T04:30:09.675Z,5.05
2019-02-02T04:32:46.842Z,4.88
2019-02-02T04:35:19.686Z,4.78
2019-02-02T04:37:57.128Z,4.79
2019-02-02T04:40:32.756Z,4.69
2019-02-02T04:43:02.602Z,4.60
2019-02-02T04:45:44.300Z,4.41
2019-02-02T04:48:18.310Z,4.48
2019-02-02T04:50:50.831Z,4.29
2019-02-02T04:53:20.605Z,4.32
2019-02-02T04:55:57.695Z,4.28
2019-02-02T04:58:27.614Z,4.20
2019-02-02T05:01:24.208Z,4.16
2019-02-02T05:03:59.823Z,4.15
2019-02-02T05:06:34.544Z,4.13
2019-02-02T05:09:08.860Z,4.07
2019-02-02T05:11:43.526Z,3.92
2019-02-02T05:14:13.468Z,3.88
2019-02-02T05:16:43.225Z,3.95
2019-02-02T05:19:16.111Z,3.94
2019-02-02T05:21:59.124Z,3.98
2019-02-02T05:24:29.457Z,3.98
2019-02-02T05:27:07.677Z,4.05
2019-02-02T05:29:50.599Z,4.18
2019-02-02T05:32:20.422Z,4.36
2019-02-02T05:34:56.005Z,4.62
2019-02-02T05:37:28.861Z,4.72
2019-02-02T05:40:15.923Z,4.82
2019-02-02T05:42:48.212Z,4.99
2019-02-02T05:45:24.012Z,5.15
2019-02-02T05:47:57.343Z,5.26
2019-02-02T05:50:29.876Z,5.31
2019-02-02T05:53:03.329Z,5.35
2019-02-02T05:55:39.819Z,5.44
2019-02-02T05:58:29.639Z,5.50
2019-02-02T06:01:05.655Z,5.48
2019-02-02T06:03:43.895Z,5.56
2019-02-02T06:06:17.461Z,5.59
2019-02-02T06:08:49.380Z,5.70
2019-02-02T06:11:31.976Z,5.76
2019-02-02T06:14:04.902Z,5.84
2019-02-02T06:16:42.681Z,6.04
2019-02-02T06:19:16.225Z,6.10
2019-02-02T06:21:47.706Z,6.27
2019-02-02T06:24:17.449Z,6.37
2019-02-02T06:26:49.995Z,6.29
2019-02-02T06:29:22.337Z,6.29
2019-02-02T06:31:52.237Z,6.19
2019-02-02T06:34:27.338Z,6.50
2019-02-02T06:37:03.668Z,6.45
2019-02-02T06:39:35.085Z,6.33
2019-02-02T06:42:06.964Z,6.29
2019-02-02T06:44:38.025Z,6.16
2019-02-02T06:47:12.967Z,6.21
2019-02-02T06:49:51.483Z,6.03
2019-02-02T06:52:24.373Z,6.11
2019-02-02T06:54:57.164Z,6.20
2019-02-02T06:57:27.096Z,6.34
2019-02-02T07:00:15.758Z,6.42
2019-02-02T07:02:38.386Z,6.67
2019-02-02T07:05:08.724Z,6.59
2019-02-02T07:07:42.334Z,6.53
2019-02-02T07:10:15.380Z,6.54
2019-02-02T07:12:47.407Z,6.66
2019-02-02T07:15:24.672Z,6.85
2019-02-02T07:17:54.757Z,7.16
2019-02-02T07:20:26.853Z,7.09
2019-02-02T07:23:01.558Z,7.13
2019-02-02T07:25:32.202Z,7.31
2019-02-02T07:28:06.013Z,6.93
2019-02-02T07:30:35.632Z,6.79
2019-02-02T07:33:19.350Z,6.98
2019-02-02T07:35:46.445Z,7.10
2019-02-02T07:38:20.324Z,7.10
2019-02-02T07:40:56.153Z,7.04
2019-02-02T07:43:24.693Z,7.13
2019-02-02T07:45:54.481Z,7.14
2019-02-02T07:48:43.430Z,7.33
2019-02-02T07:51:18.621Z,7.54
2019-02-02T07:53:56.564Z,7.09
2019-02-02T07:56:37.433Z,7.10
2019-02-02T07:59:11.230Z,7.20
2019-02-02T08:01:42.807Z,7.26
2019-02-02T08:04:13.952Z,7.10
2019-02-02T08:06:54.256Z,7.11
2019-02-02T08:09:27.351Z,7.21
2019-02-02T08:11:59.492Z,7.23
2019-02-02T08:14:35.882Z,7.52
2019-02-02T08:17:06.738Z,7.44
2019-02-02T08:19:36.410Z,7.27
2019-02-02T08:22:12.447Z,7.50
2019-02-02T08:24:51.119Z,7.62
2019-02-02T08:27:18.396Z,7.65
2019-02-02T08:30:03.693Z,7.79
2019-02-02T08:32:38.945Z,8.01
2019-02-02T08:35:14.763Z,8.20
2019-02-02T08:37:46.624Z,8.37
2019-02-02T08:40:19.865Z,8.24
2019-02-02T08:42:58.560Z,8.58
2019-02-02T08:45:32.781Z,8.57
2019-02-02T08:48:03.769Z,8.59
2019-02-02T08:50:38.668Z,8.92
2019-02-02T08:53:08.526Z,8.80
2019-02-02T08:55:38.313Z,9.03
2019-02-02T08:58:08.440Z,9.01
2019-02-02T09:00:39.921Z,9.20
2019-02-02T09:03:09.876Z,9.19
2019-02-02T09:05:39.920Z,9.24
2019-02-02T09:08:09.875Z,9.43
2019-02-02T09:10:39.753Z,9.43
2019-02-02T09:13:09.666Z,9.34
2019-02-02T09:15:39.711Z,9.72
2019-02-02T09:18:09.566Z,10.02
2019-02-02T09:20:39.396Z,10.10
2019-02-02T09:23:09.467Z,9.97
2019-02-02T09:25:39.475Z,10.18
2019-02-02T09:28:09.260Z,10.40
2019-02-02T09:30:40.265Z,10.65
2019-02-02T09:33:11.439Z,10.75
2019-02-02T09:35:41.827Z,10.70
2019-02-02T09:38:12.344Z,10.66
2019-02-02T09:40:43.185Z,10.70
2019-02-02T09:43:13.140Z,10.79
2019-02-02T09:45:43.051Z,10.73
2019-02-02T09:48:13.021Z,10.93
2019-02-02T09:50:42.982Z,11.04
2019-02-02T09:53:14.389Z,11.31
2019-02-02T09:55:44.330Z,11.11
2019-02-02T09:58:14.604Z,11.08
2019-02-02T10:00:44.895Z,11.32
2019-02-02T10:03:14.843Z,11.47
2019-02-02T10:05:44.800Z,11.60
2019-02-02T10:08:14.580Z,11.67
2019-02-02T10:10:44.505Z,11.58
2019-02-02T10:13:14.515Z,11.67
2019-02-02T10:15:44.345Z,11.58
2019-02-02T10:18:14.140Z,11.67
2019-02-02T10:20:44.246Z,12.04
2019-02-02T10:23:14.184Z,12.32
2019-02-02T10:25:44.114Z,12.60
2019-02-02T10:28:15.279Z,12.73
2019-02-02T10:30:45.958Z,12.97
2019-02-02T10:33:16.894Z,12.92
2019-02-02T10:35:46.976Z,13.05
2019-02-02T10:38:16.976Z,13.28
2019-02-02T10:40:46.982Z,13.44
2019-02-02T10:43:17.098Z,13.67
2019-02-02T10:45:47.152Z,14.02
2019-02-02T10:48:17.107Z,14.21
2019-02-02T10:50:47.120Z,14.35
2019-02-02T10:53:17.275Z,14.29
2019-02-02T10:55:47.173Z,14.30
2019-02-02T10:58:17.336Z,14.45
2019-02-02T11:00:47.212Z,14.51
2019-02-02T11:03:17.138Z,14.57
2019-02-02T11:05:47.175Z,14.74
2019-02-02T11:08:17.346Z,14.66
2019-02-02T11:10:47.336Z,14.50
2019-02-02T11:13:17.381Z,14.55
2019-02-02T11:15:47.631Z,14.61
2019-02-02T11:18:17.446Z,14.91
2019-02-02T11:20:47.421Z,15.19
2019-02-02T11:23:17.312Z,15.32
2019-02-02T11:25:47.402Z,15.46
2019-02-02T11:28:19.721Z,15.63
2019-02-02T11:30:52.226Z,16.02
2019-02-02T11:33:21.463Z,15.95
2019-02-02T11:35:52.727Z,15.82
2019-02-02T11:38:22.712Z,15.93
2019-02-02T11:40:52.757Z,15.91
2019-02-02T11:43:24.013Z,15.98
2019-02-02T11:45:54.025Z,15.91
2019-02-02T11:48:24.019Z,16.03
2019-02-02T11:50:54.196Z,16.23
2019-02-02T11:53:24.030Z,16.34
2019-02-02T11:55:53.871Z,16.48
2019-02-02T11:58:23.812Z,16.29
2019-02-02T12:00:54.019Z,16.48
2019-02-02T12:03:23.990Z,16.44
2019-02-02T12:05:55.114Z,16.51
2019-02-02T12:08:25.077Z,16.50
2019-02-02T12:10:54.862Z,16.45
2019-02-02T12:13:24.713Z,16.06
2019-02-02T12:15:54.746Z,15.94
2019-02-02T12:18:24.616Z,15.72
2019-02-02T12:20:54.553Z,15.91
2019-02-02T12:23:24.698Z,15.92
2019-02-02T12:25:55.105Z,15.85
2019-02-02T12:28:25.131Z,15.86
2019-02-02T12:30:56.266Z,15.76
2019-02-02T12:33:26.256Z,15.87
2019-02-02T12:35:57.729Z,15.82
2019-02-02T12:38:29.097Z,15.83
2019-02-02T12:40:59.797Z,15.85
2019-02-02T12:43:29.834Z,15.92
2019-02-02T12:45:59.677Z,15.88
2019-02-02T12:48:32.147Z,15.95
2019-02-02T12:51:01.139Z,15.86
2019-02-02T12:53:31.066Z,15.92
2019-02-02T12:56:00.993Z,16.14
2019-02-02T12:58:32.122Z,16.13
2019-02-02T13:01:02.357Z,16.04
2019-02-02T13:03:32.125Z,15.98
2019-02-02T13:06:02.294Z,15.93
2019-02-02T13:08:32.159Z,15.96
2019-02-02T13:11:02.012Z,16.05
2019-02-02T13:13:32.052Z,16.13
2019-02-02T13:16:01.909Z,16.15
2019-02-02T13:18:31.745Z,16.07
2019-02-02T13:21:01.693Z,16.05
2019-02-02T13:23:31.574Z,16.08
2019-02-02T13:26:05.517Z,16.04
2019-02-02T13:28:33.225Z,16.12
2019-02-02T13:31:03.388Z,16.00
2019-02-02T13:33:33.191Z,16.02
2019-02-02T13:36:04.360Z,15.98
2019-02-02T13:38:34.349Z,16.04
2019-02-02T13:41:04.269Z,16.00
2019-02-02T13:43:34.248Z,16.09
2019-02-02T13:46:04.209Z,16.15
2019-02-02T13:48:34.313Z,16.00
2019-02-02T13:51:06.158Z,15.95
2019-02-02T13:53:35.793Z,16.05
2019-02-02T13:56:05.809Z,16.10
2019-02-02T13:58:35.784Z,16.06
2019-02-02T14:01:05.650Z,15.96
2019-02-02T14:03:35.570Z,16.01
2019-02-02T14:06:05.530Z,16.02
2019-02-02T14:08:35.394Z,15.96
2019-02-02T14:11:05.423Z,15.85
2019-02-02T14:13:35.257Z,15.76
2019-02-02T14:16:05.287Z,15.77
2019-02-02T14:18:35.148Z,15.79
2019-02-02T14:21:05.367Z,15.67
2019-02-02T14:23:35.301Z,15.63
2019-02-02T14:26:05.222Z,15.54
2019-02-02T14:28:35.073Z,15.46
2019-02-02T14:31:04.963Z,15.48
2019-02-02T14:33:34.854Z,15.34
2019-02-02T14:36:04.642Z,15.27
2019-02-02T14:38:34.491Z,15.29
2019-02-02T14:41:04.521Z,15.20
2019-02-02T14:43:35.703Z,15.12
2019-02-02T14:46:06.027Z,15.06
2019-02-02T14:48:35.915Z,15.00
2019-02-02T14:51:13.671Z,15.01
2019-02-02T14:53:43.547Z,14.94
2019-02-02T14:56:13.438Z,14.91
2019-02-02T14:58:43.300Z,14.85
2019-02-02T15:01:13.171Z,14.76
2019-02-02T15:03:43.804Z,14.68
2019-02-02T15:06:15.069Z,14.61
2019-02-02T15:08:44.886Z,14.58
2019-02-02T15:11:14.903Z,14.52
2019-02-02T15:13:44.943Z,14.43
2019-02-02T15:16:14.845Z,14.35
2019-02-02T15:18:44.572Z,14.33
2019-02-02T15:21:14.481Z,14.35
2019-02-02T15:23:45.535Z,14.25
2019-02-02T15:26:15.627Z,14.23
2019-02-02T15:28:45.590Z,14.19
2019-02-02T15:31:15.444Z,14.15
2019-02-02T15:33:45.191Z,14.12
2019-02-02T15:36:15.178Z,14.12
2019-02-02T15:38:45.102Z,14.14
2019-02-02T15:41:16.052Z,14.16
2019-02-02T15:43:45.838Z,14.05
2019-02-02T15:46:15.668Z,13.96
2019-02-02T15:48:45.633Z,13.96
2019-02-02T15:51:15.522Z,13.88
2019-02-02T15:53:45.409Z,13.74
2019-02-02T15:56:15.377Z,13.67
2019-02-02T15:58:45.270Z,13.68
2019-02-02T16:01:15.050Z,13.63
2019-02-02T16:03:49.690Z,13.73
2019-02-02T16:06:16.539Z,13.70
2019-02-02T16:08:47.708Z,13.69
2019-02-02T16:11:17.824Z,13.68
2019-02-02T16:13:47.724Z,13.64
2019-02-02T16:16:17.688Z,13.58
2019-02-02T16:18:47.455Z,13.57
2019-02-02T16:21:17.371Z,13.63
2019-02-02T16:23:47.342Z,13.60
2019-02-02T16:26:17.112Z,13.55
2019-02-02T16:28:48.728Z,13.63
2019-02-02T16:31:19.120Z,13.60
2019-02-02T16:33:48.937Z,13.58
2019-02-02T16:36:20.189Z,13.55
2019-02-02T16:38:50.193Z,13.51
2019-02-02T16:41:20.119Z,13.49
2019-02-02T16:43:50.125Z,13.45
2019-02-02T16:46:19.969Z,13.44
2019-02-02T16:48:49.857Z,13.42
2019-02-02T16:51:19.830Z,13.37
2019-02-02T16:53:49.700Z,13.35
2019-02-02T16:56:19.598Z,13.31
2019-02-02T16:58:49.527Z,13.26
2019-02-02T17:01:19.414Z,13.26
2019-02-02T17:03:49.421Z,13.27
2019-02-02T17:06:19.260Z,13.22
2019-02-02T17:08:49.197Z,13.23
2019-02-02T17:11:19.035Z,13.16
2019-02-02T17:13:48.800Z,13.12
2019-02-02T17:16:18.833Z,13.03
2019-02-02T17:18:48.897Z,13.02
2019-02-02T17:21:19.987Z,12.93
2019-02-02T17:23:49.985Z,12.92
2019-02-02T17:26:19.895Z,12.89
2019-02-02T17:28:49.882Z,12.89
2019-02-02T17:31:19.742Z,12.99
2019-02-02T17:33:49.540Z,12.88
2019-02-02T17:36:19.515Z,12.77
2019-02-02T17:38:49.386Z,12.75
2019-02-02T17:41:19.335Z,12.62
2019-02-02T17:43:49.257Z,12.59
2019-02-02T17:46:19.205Z,12.56
2019-02-02T17:48:49.040Z,12.47
2019-02-02T17:51:19.057Z,12.41
2019-02-02T17:53:49.140Z,12.40
2019-02-02T17:56:19.110Z,12.39
2019-02-02T17:58:49.012Z,12.43
2019-02-02T18:01:19.006Z,12.51
2019-02-02T18:03:48.862Z,12.46
2019-02-02T18:06:18.914Z,12.35
2019-02-02T18:08:48.715Z,12.31
2019-02-02T18:11:18.607Z,12.31
2019-02-02T18:13:48.552Z,12.31
2019-02-02T18:16:18.442Z,12.33
2019-02-02T18:18:49.109Z,12.24
2019-02-02T18:21:19.172Z,12.37
2019-02-02T18:23:49.028Z,12.41
2019-02-02T18:26:18.939Z,12.32
2019-02-02T18:28:49.028Z,12.30
2019-02-02T18:31:18.862Z,12.30
2019-02-02T18:33:48.569Z,12.27
2019-02-02T18:36:18.436Z,12.34
2019-02-02T18:38:48.304Z,12.32
2019-02-02T18:41:18.158Z,12.36
2019-02-02T18:43:48.028Z,12.48
2019-02-02T18:46:17.874Z,12.50
2019-02-02T18:48:49.326Z,12.42
2019-02-02T18:51:19.358Z,12.40
2019-02-02T18:53:49.235Z,12.35
2019-02-02T18:56:19.065Z,12.41
2019-02-02T18:58:49.202Z,12.41
2019-02-02T19:01:19.197Z,12.62
2019-02-02T19:03:49.113Z,12.77
2019-02-02T19:06:19.159Z,12.72
2019-02-02T19:08:48.936Z,12.65
2019-02-02T19:11:18.838Z,12.69
2019-02-02T19:13:48.828Z,12.63
2019-02-02T19:16:18.696Z,12.60
2019-02-02T19:18:48.613Z,12.56
2019-02-02T19:21:19.536Z,12.53
2019-02-02T19:23:49.342Z,12.47
2019-02-02T19:26:19.042Z,12.50
2019-02-02T19:28:50.188Z,12.41
2019-02-02T19:31:20.017Z,12.21
2019-02-02T19:33:49.937Z,12.28
2019-02-02T19:36:21.003Z,12.22
2019-02-02T19:38:50.598Z,12.17
2019-02-02T19:41:20.539Z,12.11
2019-02-02T19:43:50.474Z,12.09
2019-02-02T19:46:20.383Z,12.03
2019-02-02T19:48:50.304Z,11.92
2019-02-02T19:51:20.243Z,11.55
2019-02-02T19:53:50.124Z,11.39
2019-02-02T19:56:19.979Z,11.42
2019-02-02T19:58:49.919Z,11.50
2019-02-02T20:01:19.806Z,11.48
2019-02-02T20:03:49.791Z,11.45
2019-02-02T20:06:19.745Z,11.48
2019-02-02T20:08:49.764Z,11.53
2019-02-02T20:11:19.723Z,11.58
2019-02-02T20:13:49.771Z,11.59
2019-02-02T20:16:19.814Z,11.61
2019-02-02T20:18:49.681Z,11.64
2019-02-02T20:21:20.902Z,11.64
2019-02-02T20:23:50.633Z,11.63
2019-02-02T20:26:20.508Z,11.75
2019-02-02T20:28:50.451Z,11.77
2019-02-02T20:31:20.403Z,11.78
2019-02-02T20:33:50.101Z,11.51
2019-02-02T20:36:20.003Z,11.28
2019-02-02T20:38:49.967Z,11.25
2019-02-02T20:41:19.851Z,11.20
2019-02-02T20:43:51.060Z,11.22
2019-02-02T20:46:21.059Z,11.24
2019-02-02T20:48:50.935Z,11.16
2019-02-02T20:51:20.962Z,11.12
2019-02-02T20:53:50.784Z,11.07
2019-02-02T20:56:20.747Z,10.92
2019-02-02T20:58:50.658Z,10.80
2019-02-02T21:01:20.526Z,10.79
2019-02-02T21:03:51.629Z,10.80
2019-02-02T21:06:21.374Z,10.83
2019-02-02T21:08:51.405Z,10.87
2019-02-02T21:11:22.352Z,10.83
2019-02-02T21:13:52.153Z,10.79
2019-02-02T21:16:22.294Z,10.77
2019-02-02T21:18:52.247Z,10.90
2019-02-02T21:21:22.114Z,10.89
2019-02-02T21:23:54.811Z,10.81
2019-02-02T21:26:23.925Z,10.79
2019-02-02T21:28:54.055Z,10.75
2019-02-02T21:31:24.021Z,10.73
2019-02-02T21:33:53.988Z,10.75
2019-02-02T21:36:23.757Z,10.76
2019-02-02T21:38:53.678Z,10.74
2019-02-02T21:41:23.523Z,10.67
2019-02-02T21:43:53.409Z,10.65
2019-02-02T21:46:23.208Z,10.55
2019-02-02T21:48:53.085Z,10.49
2019-02-02T21:51:23.103Z,10.47
2019-02-02T21:53:52.986Z,10.40
2019-02-02T21:56:24.024Z,10.38
2019-02-02T21:58:53.955Z,10.33
2019-02-02T22:01:24.484Z,10.35
2019-02-02T22:03:54.528Z,10.31
2019-02-02T22:06:24.387Z,10.50
2019-02-02T22:08:54.419Z,10.57
2019-02-02T22:11:24.300Z,10.54
2019-02-02T22:13:54.384Z,10.50
2019-02-02T22:16:24.630Z,10.48
2019-02-02T22:18:54.651Z,10.43
2019-02-02T22:21:24.515Z,10.41
2019-02-02T22:23:55.091Z,10.36
2019-02-02T22:26:24.996Z,10.40
2019-02-02T22:28:57.825Z,10.38
2019-02-02T22:31:26.709Z,10.34
2019-02-02T22:33:56.703Z,10.24
2019-02-02T22:36:27.761Z,10.24
2019-02-02T22:38:57.791Z,10.24
2019-02-02T22:41:27.547Z,10.20
2019-02-02T22:43:57.489Z,10.18
2019-02-02T22:46:27.313Z,10.28
2019-02-02T22:48:57.205Z,10.20
2019-02-02T22:51:27.119Z,10.22
2019-02-02T22:53:57.288Z,9.90
2019-02-02T22:56:27.265Z,9.67
2019-02-02T22:58:57.289Z,9.52
2019-02-02T23:01:34.641Z,9.48
2019-02-02T23:04:53.971Z,9.48
2019-02-02T23:08:07.189Z,9.45
2019-02-02T23:11:25.872Z,9.38
2019-02-02T23:14:19.851Z,9.36
2019-02-02T23:16:49.957Z,9.54
2019-02-02T23:19:19.731Z,9.82
2019-02-02T23:21:49.541Z,10.10
2019-02-02T23:24:19.521Z,10.26
2019-02-02T23:26:49.905Z,10.24
2019-02-02T23:29:19.815Z,10.21
2019-02-02T23:31:51.079Z,10.10
2019-02-02T23:34:20.969Z,10.07
2019-02-02T23:36:53.881Z,10.04
2019-02-02T23:39:22.318Z,10.07
2019-02-02T23:41:52.176Z,10.01
2019-02-02T23:44:22.094Z,10.06
2019-02-02T23:46:52.356Z,10.03
2019-02-02T23:49:22.128Z,10.05
2019-02-02T23:51:51.836Z,9.97
2019-02-02T23:54:21.669Z,9.77
2019-02-02T23:56:51.454Z,9.68
2019-02-02T23:59:21.272Z,9.63
